Time;durP1;ratioP1;P1;durP2;ratioP2;P2;SDS_P1;SDS_P2;PMS_P1;PMS_P2;Temp;Humidity;BMP_temperature;BMP_pressure;BME280_temperature;BME280_humidity;BME280_pressure;Samples;Min_cycle;Max_cycle;Signal;HPM_P1;HPM_P2
2020/12/30 00:02:30;;;;;;;28.67;12.30;;;;;;;4.30;81.18;96729.16;5091829;28;20043;-73
2020/12/30 00:04:57;;;;;;;25.83;11.02;;;;;;;4.40;82.06;96725.00;5093308;28;20048;-73
2020/12/30 00:07:23;;;;;;;24.50;11.20;;;;;;;4.23;83.71;96723.56;5092232;28;20044;-73
2020/12/30 00:09:49;;;;;;;21.35;9.15;;;;;;;4.21;84.76;96735.78;5093098;28;20471;-73
2020/12/30 00:12:18;;;;;;;17.15;8.13;;;;;;;4.19;86.63;96742.03;5092112;28;20040;-73
2020/12/30 00:14:44;;;;;;;18.20;7.50;;;;;;;4.06;87.79;96744.59;5092792;28;20086;-73
2020/12/30 00:17:10;;;;;;;14.55;6.80;;;;;;;4.14;88.95;96731.97;5092709;28;20032;-73
2020/12/30 00:19:36;;;;;;;12.52;6.70;;;;;;;3.94;90.97;96728.94;5093754;28;20489;-74
2020/12/30 00:22:06;;;;;;;12.63;5.90;;;;;;;3.90;92.40;96730.06;5091304;28;20044;-77
2020/12/30 00:24:32;;;;;;;12.45;6.22;;;;;;;3.96;92.75;96725.41;5093022;28;20076;-74
2020/12/30 00:27:01;;;;;;;14.30;6.75;;;;;;;3.85;94.79;96728.72;5092710;28;20043;-74
2020/12/30 00:29:27;;;;;;;13.90;7.03;;;;;;;3.77;95.28;96721.44;5093398;28;20074;-73
2020/12/30 00:31:53;;;;;;;14.52;7.25;;;;;;;3.71;96.62;96720.09;5091927;28;20051;-75
2020/12/30 00:34:19;;;;;;;15.27;7.00;;;;;;;3.78;96.38;96723.09;5092462;28;20040;-73
2020/12/30 00:36:44;;;;;;;14.57;7.05;;;;;;;3.76;96.47;96730.97;5091688;28;20142;-73
2020/12/30 00:39:10;;;;;;;12.60;6.43;;;;;;;3.72;97.56;96726.09;5092337;28;20048;-74
2020/12/30 00:41:36;;;;;;;14.38;6.90;;;;;;;3.60;98.93;96732.91;5093039;28;20036;-73
2020/12/30 00:44:01;;;;;;;15.27;7.00;;;;;;;3.64;99.01;96733.53;5091974;28;20105;-77
2020/12/30 00:46:27;;;;;;;13.27;6.40;;;;;;;3.63;98.98;96734.47;5089559;28;20121;-73
2020/12/30 00:48:53;;;;;;;12.35;6.40;;;;;;;3.62;99.33;96732.81;5091738;28;20044;-73
2020/12/30 00:51:19;;;;;;;12.95;6.78;;;;;;;3.80;98.15;96741.97;5092039;28;20044;-74
2020/12/30 00:53:47;;;;;;;13.48;6.80;;;;;;;3.74;98.82;96732.03;5092496;28;20513;-73
2020/12/30 00:56:13;;;;;;;15.00;6.97;;;;;;;3.62;99.96;96738.00;5091728;28;20036;-73
2020/12/30 00:58:39;;;;;;;15.73;7.35;;;;;;;3.68;99.83;96740.19;5092707;28;20081;-73
2020/12/30 01:01:08;;;;;;;16.95;8.20;;;;;;;3.60;100.00;96748.47;5091793;28;20054;-77
2020/12/30 01:03:34;;;;;;;16.38;8.65;;;;;;;3.61;100.00;96746.69;5092275;28;20047;-73
2020/12/30 01:06:00;;;;;;;16.88;8.55;;;;;;;3.58;100.00;96743.38;5092075;28;20048;-73
2020/12/30 01:08:27;;;;;;;18.33;9.90;;;;;;;3.59;100.00;96739.03;5090360;28;20067;-73
2020/12/30 01:10:53;;;;;;;19.05;10.02;;;;;;;3.65;100.00;96732.63;5092422;28;20040;-74
2020/12/30 01:13:19;;;;;;;19.60;10.80;;;;;;;3.59;100.00;96724.28;5091028;28;20047;-74
2020/12/30 01:15:45;;;;;;;19.73;11.52;;;;;;;3.50;100.00;96714.53;5091777;28;20068;-74
2020/12/30 01:18:11;;;;;;;18.30;11.68;;;;;;;3.40;100.00;96695.34;5091560;28;20091;-75
2020/12/30 01:20:37;;;;;;;20.00;11.23;;;;;;;3.43;100.00;96697.75;5092239;28;20403;-74
2020/12/30 01:23:03;;;;;;;16.67;9.63;;;;;;;3.48;100.00;96721.59;5092083;28;20036;-74
2020/12/30 01:25:28;;;;;;;21.23;11.50;;;;;;;3.42;100.00;96729.75;5090434;28;20147;-74
2020/12/30 01:27:54;;;;;;;19.35;12.45;;;;;;;3.40;100.00;96734.22;5092122;28;20044;-75
2020/12/30 01:30:21;;;;;;;20.60;11.68;;;;;;;3.44;100.00;96729.66;5091090;28;20051;-74
2020/12/30 01:32:46;;;;;;;22.05;13.30;;;;;;;3.59;100.00;96736.44;5092150;28;20044;-74
2020/12/30 01:35:12;;;;;;;25.23;15.10;;;;;;;3.47;100.00;96727.69;5090770;28;20040;-74
2020/12/30 01:37:39;;;;;;;21.40;13.70;;;;;;;3.70;100.00;96726.19;5092433;28;20062;-74
2020/12/30 01:40:05;;;;;;;20.80;14.43;;;;;;;3.53;100.00;96727.28;5091104;28;20117;-74
2020/12/30 01:42:49;;;;;;;20.83;14.68;;;;;;;3.50;100.00;96727.50;5091677;28;20044;-75
2020/12/30 01:45:16;;;;;;;26.98;15.23;;;;;;;3.54;100.00;96726.38;5090147;28;20089;-74
2020/12/30 01:47:44;;;;;;;24.90;16.60;;;;;;;3.47;100.00;96730.28;5091876;28;20048;-74
2020/12/30 01:50:10;;;;;;;27.05;17.05;;;;;;;3.51;100.00;96734.34;5091070;28;20097;-77
2020/12/30 01:52:36;;;;;;;25.63;16.67;;;;;;;3.59;100.00;96739.84;5090676;28;20044;-74
2020/12/30 01:55:02;;;;;;;23.95;16.52;;;;;;;3.59;100.00;96739.84;5091723;28;20131;-73
2020/12/30 01:57:31;;;;;;;27.30;17.63;;;;;;;3.52;100.00;96735.16;5091265;28;20648;-74
2020/12/30 01:59:57;;;;;;;32.25;21.27;;;;;;;3.47;100.00;96738.06;5091377;28;20051;-73
2020/12/30 02:02:27;;;;;;;32.00;21.90;;;;;;;3.52;100.00;96737.75;5090885;28;20059;-73
2020/12/30 02:04:55;;;;;;;34.70;23.08;;;;;;;3.52;100.00;96743.78;5090679;28;20040;-73
2020/12/30 02:07:25;;;;;;;35.35;25.30;;;;;;;3.45;100.00;96739.09;5090831;28;20044;-73
2020/12/30 02:09:56;;;;;;;37.35;25.63;;;;;;;3.45;100.00;96742.50;5091260;28;20068;-74
2020/12/30 02:12:22;;;;;;;41.72;25.00;;;;;;;3.43;100.00;96746.97;5074981;28;20047;-73
2020/12/30 02:14:47;;;;;;;40.17;25.38;;;;;;;3.48;100.00;96742.31;5090786;28;20040;-73
2020/12/30 02:17:15;;;;;;;36.58;25.65;;;;;;;3.51;100.00;96741.28;5090443;28;20115;-74
2020/12/30 02:19:41;;;;;;;41.63;28.65;;;;;;;3.39;100.00;96740.31;5091548;28;20044;-73
2020/12/30 02:22:12;;;;;;;44.97;32.65;;;;;;;3.40;100.00;96742.00;5091527;28;20071;-73
2020/12/30 02:24:37;;;;;;;49.00;32.08;;;;;;;3.33;100.00;96738.13;5091170;28;20364;-73
2020/12/30 02:27:05;;;;;;;44.63;29.95;;;;;;;3.31;100.00;96740.81;5091775;28;20051;-73
2020/12/30 02:29:32;;;;;;;46.13;26.42;;;;;;;3.30;100.00;96735.72;5090248;28;20040;-74
2020/12/30 02:31:58;;;;;;;39.10;23.48;;;;;;;3.26;100.00;96734.25;5090323;28;20044;-74
2020/12/30 02:34:25;;;;;;;29.67;17.83;;;;;;;3.25;100.00;96732.59;5090483;28;20048;-74
2020/12/30 02:36:51;;;;;;;32.90;16.85;;;;;;;3.26;100.00;96732.50;5091549;28;20055;-73
2020/12/30 02:39:18;;;;;;;25.95;15.93;;;;;;;3.27;100.00;96731.56;5089699;28;20043;-73
2020/12/30 02:41:44;;;;;;;22.70;14.70;;;;;;;3.29;100.00;96731.47;5091536;28;20046;-74
2020/12/30 02:44:10;;;;;;;23.48;13.40;;;;;;;3.28;100.00;96729.81;5090871;28;20122;-73
2020/12/30 02:46:36;;;;;;;18.33;11.63;;;;;;;3.29;100.00;96726.28;5090778;28;20056;-73
2020/12/30 02:49:03;;;;;;;17.15;11.80;;;;;;;3.30;100.00;96727.94;5090921;28;20040;-73
2020/12/30 02:51:29;;;;;;;20.63;11.35;;;;;;;3.34;100.00;96732.03;5090470;28;20055;-74
2020/12/30 02:53:54;;;;;;;21.10;12.57;;;;;;;3.32;100.00;96729.53;5091030;28;20492;-73
2020/12/30 02:56:20;;;;;;;20.73;13.55;;;;;;;3.39;100.00;96711.81;5090237;28;20048;-74
2020/12/30 02:58:47;;;;;;;19.42;13.95;;;;;;;3.34;100.00;96729.44;5091008;28;20126;-74
2020/12/30 03:01:14;;;;;;;21.25;11.48;;;;;;;3.45;100.00;96705.41;5090335;28;20489;-76
2020/12/30 03:03:40;;;;;;;21.00;13.70;;;;;;;3.34;100.00;96708.72;5090528;28;20101;-74
2020/12/30 03:06:07;;;;;;;24.50;14.80;;;;;;;3.38;100.00;96695.47;5090377;28;20528;-74
2020/12/30 03:08:34;;;;;;;26.48;14.75;;;;;;;3.19;100.00;96685.44;5090258;28;20231;-74
2020/12/30 03:11:00;;;;;;;22.00;14.35;;;;;;;3.18;100.00;96694.16;5094359;28;20047;-74
2020/12/30 03:13:27;;;;;;;16.98;11.27;;;;;;;3.22;100.00;96689.59;5093677;28;20040;-74
2020/12/30 03:15:53;;;;;;;9.23;6.45;;;;;;;3.36;100.00;96680.94;5094752;28;20471;-75
2020/12/30 03:18:19;;;;;;;9.77;6.40;;;;;;;3.29;100.00;96688.28;5092837;28;20052;-74
2020/12/30 03:20:44;;;;;;;6.68;4.57;;;;;;;3.26;100.00;96685.03;5093978;28;20056;-74
2020/12/30 03:23:10;;;;;;;8.55;6.78;;;;;;;3.23;100.00;96686.09;5093492;28;20047;-74
2020/12/30 03:25:36;;;;;;;9.60;5.95;;;;;;;3.23;100.00;96686.09;5093228;28;20115;-74
2020/12/30 03:28:03;;;;;;;14.40;8.70;;;;;;;3.23;100.00;96681.72;5092607;28;20043;-74
2020/12/30 03:30:29;;;;;;;19.65;13.50;;;;;;;3.18;100.00;96673.44;5093271;28;20048;-74
2020/12/30 03:32:55;;;;;;;21.33;15.25;;;;;;;3.39;100.00;96671.19;5093896;28;20047;-74
2020/12/30 03:35:25;;;;;;;19.17;14.40;;;;;;;3.35;100.00;96674.09;5093446;28;20040;-73
2020/12/30 03:37:52;;;;;;;22.45;16.85;;;;;;;3.26;100.00;96685.03;5091656;28;20522;-74
2020/12/30 03:40:19;;;;;;;19.55;14.48;;;;;;;3.43;100.00;96705.53;5075707;28;20476;-78
2020/12/30 03:42:45;;;;;;;26.33;16.27;;;;;;;3.39;100.00;96704.88;5074452;28;20051;-74
2020/12/30 03:45:10;;;;;;;19.20;13.05;;;;;;;3.40;100.00;96713.50;5073480;28;20057;-74
2020/12/30 03:47:36;;;;;;;15.48;10.20;;;;;;;3.38;100.00;96715.31;5073170;28;20127;-74
2020/12/30 03:50:04;;;;;;;20.90;13.77;;;;;;;3.65;100.00;96722.25;5073843;28;20090;-74
2020/12/30 03:52:30;;;;;;;23.92;15.73;;;;;;;3.36;100.00;96712.84;5072864;28;20404;-74
2020/12/30 03:54:57;;;;;;;26.80;17.08;;;;;;;3.18;100.00;96712.28;5073368;28;20492;-74
2020/12/30 03:57:23;;;;;;;29.85;17.58;;;;;;;3.21;100.00;96703.47;5072773;28;20052;-74
2020/12/30 03:59:49;;;;;;;22.27;15.57;;;;;;;3.05;100.00;96707.03;5084633;28;20485;-74
2020/12/30 04:02:16;;;;;;;30.92;18.10;;;;;;;3.02;100.00;96714.16;5073500;28;20056;-74
2020/12/30 04:04:41;;;;;;;29.50;19.23;;;;;;;3.00;100.00;96721.22;5072410;28;20135;-74
2020/12/30 04:07:07;;;;;;;31.63;19.13;;;;;;;3.03;100.00;96711.50;5072106;28;20123;-74
2020/12/30 04:09:33;;;;;;;25.58;18.02;;;;;;;3.07;100.00;96712.13;5072621;28;20045;-74
2020/12/30 04:11:59;;;;;;;28.75;17.98;;;;;;;2.92;100.00;96682.03;5073368;28;20434;-74
2020/12/30 04:14:24;;;;;;;32.22;19.80;;;;;;;2.88;100.00;96711.63;5072406;28;20502;-74
2020/12/30 04:16:50;;;;;;;28.50;18.83;;;;;;;3.04;100.00;96707.97;5073597;28;20044;-73
2020/12/30 04:19:16;;;;;;;30.55;18.98;;;;;;;3.09;100.00;96715.44;5085712;28;20070;-73
2020/12/30 04:21:41;;;;;;;26.75;18.27;;;;;;;3.08;100.00;96707.78;5076101;28;20055;-74
2020/12/30 04:24:07;;;;;;;29.48;18.20;;;;;;;3.08;100.00;96702.59;5092723;28;20052;-73
2020/12/30 04:26:33;;;;;;;26.88;17.10;;;;;;;3.05;100.00;96691.50;5091759;28;20044;-74
2020/12/30 04:28:59;;;;;;;31.27;18.83;;;;;;;3.00;100.00;96697.91;5092914;28;20054;-74
2020/12/30 04:31:25;;;;;;;34.53;20.25;;;;;;;2.96;100.00;96693.84;5092294;28;20089;-74
2020/12/30 04:33:50;;;;;;;36.00;20.30;;;;;;;2.95;100.00;96694.78;5093164;28;20073;-74
2020/12/30 04:36:16;;;;;;;34.13;21.10;;;;;;;2.95;100.00;96689.59;5092838;28;20407;-74
2020/12/30 04:38:42;;;;;;;41.00;22.88;;;;;;;2.92;100.00;96702.72;5089620;28;20556;-74
2020/12/30 04:41:10;;;;;;;40.67;21.35;;;;;;;2.91;100.00;96695.91;5092470;28;20096;-74
2020/12/30 04:43:39;;;;;;;39.25;20.33;;;;;;;3.00;100.00;96701.31;5092071;28;20066;-74
2020/12/30 04:46:06;;;;;;;38.00;20.52;;;;;;;3.01;100.00;96695.22;5092049;28;20056;-75
2020/12/30 04:48:34;;;;;;;38.92;20.80;;;;;;;3.01;100.00;96692.63;5091824;28;20136;-74
2020/12/30 04:51:01;;;;;;;36.75;19.95;;;;;;;2.99;100.00;96686.72;5091207;28;20059;-73
2020/12/30 04:53:27;;;;;;;29.25;15.85;;;;;;;3.00;100.00;96684.97;5091901;28;20040;-74
2020/12/30 04:55:57;;;;;;;35.10;18.48;;;;;;;3.00;100.00;96696.16;5092691;28;20080;-74
2020/12/30 04:58:26;;;;;;;38.40;19.08;;;;;;;2.93;100.00;96701.81;5091329;28;20040;-72
2020/12/30 05:00:52;;;;;;;42.17;19.85;;;;;;;2.97;100.00;96706.69;5092057;28;20049;-75
2020/12/30 05:03:31;;;;;;;35.50;19.48;;;;;;;2.97;100.00;96706.69;5092584;28;20040;-73
2020/12/30 05:06:00;;;;;;;23.92;14.20;;;;;;;3.09;100.00;96704.25;5092313;28;20063;-74
2020/12/30 05:08:27;;;;;;;22.17;12.82;;;;;;;3.17;100.00;96709.78;5091630;28;20131;-75
2020/12/30 05:10:53;;;;;;;22.73;10.55;;;;;;;3.14;100.00;96708.22;5092379;28;20044;-74
2020/12/30 05:13:21;;;;;;;15.80;9.00;;;;;;;3.21;100.00;96708.66;5092449;28;20047;-74
2020/12/30 05:15:47;;;;;;;14.40;7.78;;;;;;;3.20;100.00;96713.00;5091073;28;20052;-73
2020/12/30 05:18:13;;;;;;;15.02;7.18;;;;;;;3.12;100.00;96717.84;5091724;28;20445;-74
2020/12/30 05:20:39;;;;;;;13.60;7.38;;;;;;;3.06;100.00;96731.19;5091255;28;20048;-74
2020/12/30 05:23:08;;;;;;;12.88;7.18;;;;;;;3.26;100.00;96726.47;5092247;28;20044;-73
2020/12/30 05:25:39;;;;;;;15.90;7.80;;;;;;;3.28;100.00;96729.81;5090729;28;20412;-74
2020/12/30 05:28:07;;;;;;;20.52;9.82;;;;;;;3.26;100.00;96724.75;5091830;28;20044;-73
2020/12/30 05:30:34;;;;;;;18.75;9.40;;;;;;;3.25;100.00;96735.19;5090989;28;20044;-74
2020/12/30 05:33:00;;;;;;;20.63;9.50;;;;;;;3.25;100.00;96740.38;5090936;28;20048;-73
2020/12/30 05:35:27;;;;;;;23.23;11.35;;;;;;;3.21;100.00;96730.22;5091238;28;20051;-75
2020/12/30 05:37:53;;;;;;;20.80;11.30;;;;;;;3.14;100.00;96739.28;5091952;28;20048;-73
2020/12/30 05:40:23;;;;;;;21.40;11.05;;;;;;;3.25;100.00;96740.38;5091587;28;20047;-73
2020/12/30 05:42:50;;;;;;;23.27;11.70;;;;;;;3.06;100.00;96733.78;5091034;28;20054;-75
2020/12/30 05:45:20;;;;;;;22.05;12.20;;;;;;;3.20;100.00;96733.72;5090763;28;20113;-73
2020/12/30 05:47:47;;;;;;;24.38;14.10;;;;;;;3.12;100.00;96735.13;5090967;28;20172;-72
2020/12/30 05:50:21;;;;;;;20.48;11.88;;;;;;;3.18;100.00;96730.41;5092024;28;20484;-73
2020/12/30 05:52:49;;;;;;;20.48;12.00;;;;;;;3.19;100.00;96726.06;5090852;28;20097;-72
2020/12/30 05:55:14;;;;;;;24.88;12.77;;;;;;;3.23;100.00;96718.00;5089497;28;20048;-73
2020/12/30 05:57:40;;;;;;;21.88;12.85;;;;;;;3.17;100.00;96718.38;5090769;28;20063;-69
2020/12/30 06:00:11;;;;;;;25.23;12.90;;;;;;;3.12;100.00;96725.63;5077717;28;20045;-69
2020/12/30 06:02:46;;;;;;;24.70;13.90;;;;;;;3.07;100.00;96721.66;5087405;28;20040;-69
2020/12/30 06:05:27;;;;;;;27.90;13.05;;;;;;;3.05;100.00;96730.34;5091790;28;20166;-69
2020/12/30 06:07:53;;;;;;;25.55;13.10;;;;;;;3.02;100.00;96721.94;5090531;28;20044;-72
2020/12/30 06:10:23;;;;;;;24.42;11.90;;;;;;;3.11;100.00;96723.94;5091250;28;20118;-70
2020/12/30 06:12:52;;;;;;;20.40;10.23;;;;;;;3.09;100.00;96736.16;5088353;28;20048;-70
2020/12/30 06:15:22;;;;;;;22.02;10.35;;;;;;;3.08;100.00;96724.13;5091280;28;20093;-71
2020/12/30 06:18:05;;;;;;;19.73;9.43;;;;;;;3.16;100.00;96728.84;5071001;28;20136;-71
2020/12/30 06:20:32;;;;;;;19.50;9.40;;;;;;;3.15;100.00;96724.56;5070533;28;20075;-74
2020/12/30 06:23:06;;;;;;;20.63;9.32;;;;;;;3.09;100.00;96731.00;5071099;28;20434;-71
2020/12/30 06:25:34;;;;;;;18.52;8.68;;;;;;;3.09;100.00;96735.31;5070636;28;20044;-74
2020/12/30 06:28:11;;;;;;;16.98;8.18;;;;;;;3.14;100.00;96733.28;5070834;28;20048;-72
2020/12/30 06:30:38;;;;;;;16.20;8.05;;;;;;;3.15;100.00;96740.97;5079717;28;20495;-72
2020/12/30 06:33:06;;;;;;;16.15;8.45;;;;;;;3.25;100.00;96753.31;5077319;28;20040;-74
2020/12/30 06:35:33;;;;;;;17.48;8.00;;;;;;;3.19;100.00;96749.34;5070303;28;20080;-76
2020/12/30 06:38:36;;;;;;;13.02;7.20;;;;;;;3.22;100.00;96751.75;5069986;28;20056;-73
2020/12/30 06:41:07;;;;;;;14.82;8.77;;;;;;;3.19;100.00;96747.59;5072357;28;20045;-76
2020/12/30 06:43:54;;;;;;;18.13;9.00;;;;;;;3.25;100.00;96756.72;5088237;28;20101;-76
2020/12/30 06:46:25;;;;;;;25.40;9.77;;;;;;;3.18;100.00;96753.72;5093817;28;20105;-74
2020/12/30 06:48:57;;;;;;;18.80;9.67;;;;;;;3.16;100.00;96745.19;5081937;28;20114;-75
2020/12/30 06:51:23;;;;;;;24.42;10.15;;;;;;;3.25;100.00;96745.56;5092034;28;21686;-74
2020/12/30 06:53:50;;;;;;;22.98;11.23;;;;;;;3.19;100.00;96739.00;5080084;28;20123;-75
2020/12/30 06:56:37;;;;;;;23.05;10.52;;;;;;;3.21;100.00;96734.53;5087237;28;20048;-74
2020/12/30 06:59:05;;;;;;;21.23;11.13;;;;;;;3.16;100.00;96739.19;5081365;28;20103;-75
2020/12/30 07:01:57;;;;;;;25.08;13.55;;;;;;;3.14;100.00;96749.66;5072543;28;20055;-76
2020/12/30 07:04:24;;;;;;;29.00;13.98;;;;;;;3.07;100.00;96745.78;5073445;28;20499;-76
2020/12/30 07:06:53;;;;;;;37.03;16.33;;;;;;;3.07;100.00;96753.53;5069451;28;20763;-76
2020/12/30 07:09:27;;;;;;;38.53;17.23;;;;;;;3.14;100.00;96754.00;5068888;28;20109;-75
2020/12/30 07:11:54;;;;;;;36.88;18.30;;;;;;;3.13;100.00;96755.75;5064268;28;20530;-74
2020/12/30 07:14:25;;;;;;;54.58;23.42;;;;;;;3.12;100.00;96753.25;5066083;28;20052;-75
2020/12/30 07:16:59;;;;;;;52.53;26.98;;;;;;;3.12;100.00;96755.84;5073964;28;20052;-73
2020/12/30 07:19:26;;;;;;;51.00;26.52;;;;;;;3.15;100.00;96761.69;5070331;28;20051;-73
2020/12/30 07:22:08;;;;;;;52.00;26.88;;;;;;;3.20;100.00;96763.97;5073121;28;20032;-75
2020/12/30 07:24:51;;;;;;;54.28;28.27;;;;;;;3.11;100.00;96749.84;5069178;28;20048;-77
2020/12/30 07:27:17;;;;;;;45.22;24.98;;;;;;;3.14;100.00;96757.41;5070051;28;20055;-75
2020/12/30 07:29:45;;;;;;;31.30;16.35;;;;;;;3.10;100.00;96758.53;5065703;28;20045;-75
2020/12/30 07:32:12;;;;;;;35.63;18.88;;;;;;;3.16;100.00;96752.13;5064899;28;21849;-74
2020/12/30 07:34:46;;;;;;;33.85;18.35;;;;;;;3.09;100.00;96754.28;5067436;28;20473;-77
2020/12/30 07:37:13;;;;;;;35.75;18.83;;;;;;;3.14;100.00;96761.78;5066008;28;20139;-75
2020/12/30 07:39:40;;;;;;;38.85;20.23;;;;;;;3.11;100.00;96751.59;5065982;28;20052;-76
2020/12/30 07:42:12;;;;;;;40.35;20.77;;;;;;;3.09;100.00;96756.03;5066029;28;20463;-75
2020/12/30 07:44:46;;;;;;;47.28;25.55;;;;;;;3.14;100.00;96748.81;5088703;28;20052;-75
2020/12/30 07:47:12;;;;;;;54.80;27.92;;;;;;;3.12;100.00;96751.50;5072109;28;20048;-73
2020/12/30 07:49:38;;;;;;;50.05;26.73;;;;;;;3.15;100.00;96740.97;5069984;28;20047;-76
2020/12/30 07:52:05;;;;;;;57.30;30.35;;;;;;;3.17;100.00;96744.28;5069489;28;20037;-73
2020/12/30 07:54:32;;;;;;;58.55;31.10;;;;;;;3.17;100.00;96749.44;5065331;28;20045;-73
2020/12/30 07:57:05;;;;;;;67.35;34.35;;;;;;;3.25;100.00;96748.16;5065023;28;20047;-74
2020/12/30 07:59:32;;;;;;;75.22;36.60;;;;;;;3.26;100.00;96742.88;5063137;28;20139;-73
2020/12/30 08:02:06;;;;;;;81.55;38.80;;;;;;;3.26;100.00;96747.19;5064060;28;20119;-73
2020/12/30 08:04:33;;;;;;;75.75;39.08;;;;;;;3.25;100.00;96745.56;5067950;28;20047;-74
2020/12/30 08:07:03;;;;;;;62.58;32.88;;;;;;;3.26;100.00;96744.59;5063543;28;20044;-73
2020/12/30 08:09:30;;;;;;;45.97;24.67;;;;;;;3.28;100.00;96751.34;5064237;28;20047;-75
2020/12/30 08:11:59;;;;;;;44.83;25.48;;;;;;;3.26;100.00;96752.38;5065959;28;20040;-75
2020/12/30 08:14:29;;;;;;;42.60;24.75;;;;;;;3.28;100.00;96742.78;5066567;28;20466;-74
2020/12/30 08:17:06;;;;;;;40.80;22.42;;;;;;;3.36;100.00;96732.75;5063448;28;20442;-73
2020/12/30 08:19:33;;;;;;;43.10;23.08;;;;;;;3.43;100.00;96744.38;5066743;28;20052;-74
2020/12/30 08:22:05;;;;;;;48.42;23.50;;;;;;;3.43;100.00;96749.56;5063776;28;20597;-74
2020/12/30 08:24:33;;;;;;;38.65;21.35;;;;;;;3.43;100.00;96751.31;5065610;28;20063;-75
2020/12/30 08:26:59;;;;;;;42.50;24.00;;;;;;;3.39;100.00;96748.91;5062130;28;20101;-75
2020/12/30 08:29:34;;;;;;;45.08;24.65;;;;;;;3.50;100.00;96757.75;5094679;27;20052;-73
2020/12/30 08:32:03;;;;;;;45.35;26.15;;;;;;;3.48;100.00;96754.44;5091104;28;20483;-73
2020/12/30 08:34:34;;;;;;;52.20;29.88;;;;;;;3.51;100.00;96756.84;5087727;28;20048;-73
2020/12/30 08:37:08;;;;;;;50.15;26.92;;;;;;;3.53;100.00;96758.38;5086597;28;20036;-75
2020/12/30 08:39:41;;;;;;;47.00;28.38;;;;;;;3.47;100.00;96761.38;5064467;28;20087;-74
2020/12/30 08:42:23;;;;;;;62.63;33.10;;;;;;;3.50;100.00;96768.94;5066842;28;20854;-73
2020/12/30 08:44:59;;;;;;;59.20;33.03;;;;;;;3.50;100.00;96775.91;5064299;28;20097;-75
2020/12/30 08:47:27;;;;;;;66.95;36.15;;;;;;;3.50;100.00;96768.13;5072337;28;20040;-74
2020/12/30 08:49:53;;;;;;;60.50;32.78;;;;;;;3.56;100.00;96771.13;5071099;28;20484;-75
2020/12/30 08:52:20;;;;;;;59.22;34.45;;;;;;;3.61;100.00;96772.63;5069872;28;20054;-76
2020/12/30 08:54:46;;;;;;;45.97;27.90;;;;;;;3.51;100.00;96767.19;5061537;28;20037;-75
2020/12/30 08:57:19;;;;;;;59.28;33.47;;;;;;;3.47;100.00;96782.09;5070007;28;20060;-75
2020/12/30 08:59:44;;;;;;;65.10;36.08;;;;;;;3.39;100.00;96774.00;5044338;28;20049;-77
2020/12/30 09:02:11;;;;;;;65.43;36.90;;;;;;;3.71;100.00;96781.47;5064376;28;20045;-74
2020/12/30 09:04:51;;;;;;;71.90;36.10;;;;;;;3.45;100.00;96778.78;5068889;28;20044;-73
2020/12/30 09:07:26;;;;;;;69.13;36.75;;;;;;;3.41;100.00;96782.47;5064261;28;20044;-74
2020/12/30 09:10:01;;;;;;;67.32;35.28;;;;;;;3.45;100.00;96793.50;5066412;28;20052;-76
2020/12/30 09:12:27;;;;;;;63.05;32.67;;;;;;;3.40;100.00;96793.78;5069279;28;20044;-73
2020/12/30 09:14:53;;;;;;;61.85;32.28;;;;;;;3.51;100.00;96799.13;5076233;28;20403;-75
2020/12/30 09:17:19;;;;;;;60.50;33.38;;;;;;;3.43;100.00;96800.53;5075723;28;20093;-75
2020/12/30 09:19:45;;;;;;;78.18;37.05;;;;;;;3.49;100.00;96797.53;5083736;28;20048;-76
2020/12/30 09:22:11;;;;;;;80.63;41.40;;;;;;;3.43;100.00;96796.19;5089041;28;20036;-72
2020/12/30 09:24:39;;;;;;;89.13;48.67;;;;;;;3.42;100.00;96793.69;5092279;28;20071;-73
2020/12/30 09:27:15;;;;;;;85.95;47.83;;;;;;;3.48;100.00;96794.13;5085261;28;20111;-72
2020/12/30 09:29:41;;;;;;;98.82;54.42;;;;;;;3.42;100.00;96797.13;5096202;28;20040;-72
2020/12/30 09:32:07;;;;;;;92.60;52.47;;;;;;;3.43;100.00;96791.00;5091042;28;20044;-74
2020/12/30 09:34:32;;;;;;;80.03;46.55;;;;;;;3.32;100.00;96794.28;5095331;28;20143;-72
2020/12/30 09:36:58;;;;;;;76.40;43.47;;;;;;;3.55;100.00;96789.38;5087856;28;20052;-74
2020/12/30 09:39:27;;;;;;;73.95;45.00;;;;;;;3.30;100.00;96795.28;5067327;28;20246;-71
2020/12/30 09:42:02;;;;;;;72.35;42.95;;;;;;;3.29;100.00;96794.47;5067741;28;20075;-72
2020/12/30 09:44:29;;;;;;;77.22;45.67;;;;;;;3.22;100.00;96791.41;5093147;28;20066;-72
2020/12/30 09:46:55;;;;;;;75.85;45.55;;;;;;;3.12;100.00;96785.19;5085564;28;20160;-72
2020/12/30 09:49:21;;;;;;;80.95;48.13;;;;;;;3.08;100.00;96796.63;5090382;28;20123;-72
2020/12/30 09:51:57;;;;;;;76.38;46.13;;;;;;;3.11;100.00;96793.03;5083785;28;20044;-75
2020/12/30 09:54:22;;;;;;;76.32;46.03;;;;;;;3.17;100.00;96785.72;5096529;28;20051;-72
2020/12/30 09:56:51;;;;;;;63.40;38.13;;;;;;;3.16;100.00;96785.81;5109116;27;20469;-75
2020/12/30 09:59:20;;;;;;;78.38;45.88;;;;;;;3.07;100.00;96776.84;5111723;28;20047;-73
2020/12/30 10:01:48;;;;;;;83.22;48.20;;;;;;;3.07;100.00;96782.03;5088428;28;20047;-77
2020/12/30 10:04:14;;;;;;;67.78;41.13;;;;;;;3.05;100.00;96774.34;5075324;28;20113;-74
2020/12/30 10:06:39;;;;;;;63.47;39.58;;;;;;;2.99;100.00;96776.50;5091864;28;20444;-72
2020/12/30 10:09:05;;;;;;;71.93;44.65;;;;;;;3.03;100.00;96780.56;5088449;28;20177;-73
2020/12/30 10:11:31;;;;;;;78.18;46.30;;;;;;;3.03;100.00;96768.44;5075635;28;20056;-71
2020/12/30 10:13:57;;;;;;;67.95;42.17;;;;;;;3.09;100.00;96777.59;5083824;28;20491;-70
2020/12/30 10:16:22;;;;;;;57.33;36.15;;;;;;;3.11;100.00;96775.72;5089198;28;20052;-72
2020/12/30 10:18:48;;;;;;;55.00;35.80;;;;;;;3.16;100.00;96778.84;5085340;28;20044;-76
2020/12/30 10:21:14;;;;;;;65.47;40.78;;;;;;;3.18;100.00;96771.84;5094853;28;20044;-71
2020/12/30 10:23:40;;;;;;;59.80;39.42;;;;;;;3.23;100.00;96759.41;5085076;28;20040;-74
2020/12/30 10:26:07;;;;;;;68.93;43.20;;;;;;;3.24;100.00;96760.25;5088803;28;20044;-72
2020/12/30 10:28:32;;;;;;;80.18;49.22;;;;;;;3.20;100.00;96769.16;5095149;28;20051;-71
2020/12/30 10:30:58;;;;;;;88.15;50.08;;;;;;;3.29;100.00;96767.72;5092646;28;20044;-72
2020/12/30 10:33:24;;;;;;;73.57;45.90;;;;;;;3.53;100.00;96773.94;5083932;28;20036;-72
2020/12/30 10:35:50;;;;;;;80.97;50.03;;;;;;;3.38;100.00;96772.31;5074110;28;20147;-75
2020/12/30 10:38:15;;;;;;;87.93;53.92;;;;;;;3.39;100.00;96769.63;5074113;28;20377;-74
2020/12/30 10:40:41;;;;;;;120.75;62.28;;;;;;;3.27;100.00;96764.41;5075061;28;20391;-74
2020/12/30 10:43:07;;;;;;;115.13;63.60;;;;;;;3.33;100.00;96770.03;5076346;28;20045;-73
2020/12/30 10:45:32;;;;;;;95.75;56.63;;;;;;;3.34;100.00;96774.28;5095099;28;20079;-73
2020/12/30 10:47:58;;;;;;;93.63;55.67;;;;;;;3.42;100.00;96771.19;5094223;28;20051;-73
2020/12/30 10:50:24;;;;;;;103.43;54.80;;;;;;;3.28;100.00;96758.31;5084578;28;20071;-73
2020/12/30 10:52:50;;;;;;;85.20;53.67;;;;;;;3.21;100.00;96763.03;5088194;28;20119;-77
2020/12/30 10:55:17;;;;;;;96.93;57.67;;;;;;;3.14;100.00;96760.00;5094418;28;20365;-75
2020/12/30 10:57:43;;;;;;;101.88;61.88;;;;;;;3.09;100.00;96756.03;5094016;28;20498;-74
2020/12/30 11:00:08;;;;;;;110.55;64.82;;;;;;;3.25;100.00;96761.09;5093686;28;20101;-74
2020/12/30 11:02:34;;;;;;;120.88;66.72;;;;;;;3.18;100.00;96760.63;5094756;28;20052;-73
2020/12/30 11:05:01;;;;;;;117.50;64.82;;;;;;;3.28;100.00;96755.72;5091368;28;20044;-74
2020/12/30 11:07:27;;;;;;;112.30;64.90;;;;;;;3.17;100.00;96756.41;5093540;28;20548;-75
2020/12/30 11:09:53;;;;;;;102.53;59.72;;;;;;;3.11;100.00;96760.19;5094426;28;20131;-77
2020/12/30 11:12:18;;;;;;;102.97;62.33;;;;;;;3.15;100.00;96747.88;5092681;28;20044;-74
2020/12/30 11:14:44;;;;;;;112.72;65.78;;;;;;;3.20;100.00;96751.84;5092947;28;20169;-73
2020/12/30 11:17:10;;;;;;;115.40;64.72;;;;;;;3.16;100.00;96757.31;5092690;28;20098;-73
2020/12/30 11:19:36;;;;;;;104.10;65.00;;;;;;;3.30;100.00;96748.69;5094133;28;20044;-73
2020/12/30 11:22:04;;;;;;;117.43;67.28;;;;;;;3.31;100.00;96756.34;5093553;28;20040;-73
2020/12/30 11:24:30;;;;;;;113.03;69.50;;;;;;;3.27;100.00;96747.09;5094048;28;20150;-73